createdAt,value
2019-01-31T00:00:43.424Z,1.89
2019-01-31T00:01:43.146Z,1.82
2019-01-31T00:02:43.630Z,1.79
2019-01-31T00:03:43.096Z,1.82
2019-01-31T00:04:43.327Z,1.9
2019-01-31T00:05:43.555Z,1.93
2019-01-31T00:06:43.548Z,1.79
2019-01-31T00:07:43.009Z,1.87
2019-01-31T00:08:50.685Z,1.85
2019-01-31T00:09:43.206Z,1.91
2019-01-31T00:10:43.185Z,1.9
2019-01-31T00:11:43.159Z,1.98
2019-01-31T00:12:43.162Z,1.93
2019-01-31T00:13:43.121Z,1.94
2019-01-31T00:14:42.889Z,1.97
2019-01-31T00:15:42.840Z,1.98
2019-01-31T00:16:43.303Z,1.82
2019-01-31T00:17:43.280Z,1.97
2019-01-31T00:18:42.748Z,1.93
2019-01-31T00:19:42.987Z,1.91
2019-01-31T00:20:42.957Z,1.93
2019-01-31T00:21:42.927Z,1.93
2019-01-31T00:22:43.166Z,1.94
2019-01-31T00:23:42.883Z,1.94
2019-01-31T00:24:42.858Z,1.91
2019-01-31T00:25:42.695Z,1.97
2019-01-31T00:26:42.827Z,1.9
2019-01-31T00:27:42.802Z,1.94
2019-01-31T00:28:42.809Z,2.01
2019-01-31T00:29:43.086Z,1.93
2019-01-31T00:30:42.717Z,1.97
2019-01-31T00:31:42.749Z,1.94
2019-01-31T00:32:42.674Z,1.99
2019-01-31T00:33:42.895Z,2.01
2019-01-31T00:34:42.877Z,1.97
2019-01-31T00:35:42.597Z,2.01
2019-01-31T00:36:42.831Z,2.01
2019-01-31T00:37:42.678Z,2.04
2019-01-31T00:38:42.526Z,1.97
2019-01-31T00:39:42.765Z,1.94
2019-01-31T00:40:42.510Z,1.98
2019-01-31T00:41:42.209Z,1.97
2019-01-31T00:42:42.453Z,1.97
2019-01-31T00:43:42.691Z,2.01
2019-01-31T00:44:42.241Z,2.01
2019-01-31T00:45:42.623Z,1.97
2019-01-31T00:46:42.596Z,1.94
2019-01-31T00:47:42.584Z,1.93
2019-01-31T00:48:42.308Z,1.97
2019-01-31T00:49:42.279Z,2.01
2019-01-31T00:50:42.513Z,1.99
2019-01-31T00:51:42.222Z,1.97
2019-01-31T00:52:42.232Z,2.01
2019-01-31T00:53:42.300Z,2.01
2019-01-31T00:54:42.413Z,1.93
2019-01-31T00:55:42.492Z,1.98
2019-01-31T00:56:42.102Z,2.01
2019-01-31T00:57:41.834Z,1.99
2019-01-31T00:58:42.061Z,1.98
2019-01-31T00:59:42.151Z,2.01
2019-01-31T01:00:41.761Z,1.97
2019-01-31T01:01:41.993Z,1.99
2019-01-31T01:02:42.218Z,1.97
2019-01-31T01:03:42.200Z,1.98
2019-01-31T01:04:41.921Z,1.97
2019-01-31T01:05:42.159Z,1.98
2019-01-31T01:06:42.157Z,2.01
2019-01-31T01:07:41.860Z,1.99
2019-01-31T01:08:42.081Z,1.93
2019-01-31T01:09:42.062Z,1.93
2019-01-31T01:10:41.792Z,2.01
2019-01-31T01:11:42.013Z,1.93
2019-01-31T01:12:41.740Z,1.94
2019-01-31T01:13:41.809Z,1.93
2019-01-31T01:14:41.689Z,1.94
2019-01-31T01:15:41.549Z,1.94
2019-01-31T01:16:41.898Z,1.98
2019-01-31T01:17:41.612Z,1.91
2019-01-31T01:18:41.596Z,1.93
2019-01-31T01:19:41.824Z,1.94
2019-01-31T01:20:41.559Z,1.99
2019-01-31T01:21:41.777Z,1.94
2019-01-31T01:22:41.754Z,1.91
2019-01-31T01:23:41.476Z,2.04
2019-01-31T01:24:41.461Z,1.94
2019-01-31T01:25:41.435Z,2.01
2019-01-31T01:26:41.660Z,1.99
2019-01-31T01:27:41.125Z,1.94
2019-01-31T01:28:41.102Z,2.04
2019-01-31T01:29:41.628Z,2.04
2019-01-31T01:30:41.638Z,1.99
2019-01-31T01:31:41.294Z,1.98
2019-01-31T01:32:41.266Z,2.01
2019-01-31T01:33:41.544Z,1.93
2019-01-31T01:34:41.215Z,1.94
2019-01-31T01:35:41.190Z,1.94
2019-01-31T01:36:41.428Z,1.97
2019-01-31T01:37:41.148Z,1.93
2019-01-31T01:38:41.132Z,1.98
2019-01-31T01:39:41.347Z,1.98
2019-01-31T01:40:41.324Z,1.94
2019-01-31T01:41:41.308Z,1.97
2019-01-31T01:42:41.278Z,1.94
2019-01-31T01:43:41.264Z,1.99
2019-01-31T01:44:41.248Z,1.94
2019-01-31T01:45:41.250Z,1.99
2019-01-31T01:46:41.196Z,1.94
2019-01-31T01:47:40.921Z,1.93
2019-01-31T01:48:41.142Z,1.94
2019-01-31T01:49:40.859Z,1.93
2019-01-31T01:50:41.095Z,1.97
2019-01-31T01:51:41.084Z,1.83
2019-01-31T01:52:40.789Z,1.9
2019-01-31T01:53:40.764Z,1.87
2019-01-31T01:54:40.997Z,1.91
2019-01-31T01:55:40.976Z,1.91
2019-01-31T01:56:40.947Z,1.83
2019-01-31T01:57:40.676Z,1.79
2019-01-31T01:58:40.642Z,1.82
2019-01-31T01:59:40.624Z,1.75
2019-01-31T02:00:40.364Z,1.78
2019-01-31T02:01:40.579Z,1.75
2019-01-31T02:02:40.827Z,1.78
2019-01-31T02:03:40.526Z,1.73
2019-01-31T02:04:40.508Z,1.69
2019-01-31T02:05:40.482Z,1.61
2019-01-31T02:06:40.712Z,1.64
2019-01-31T02:07:40.711Z,1.55
2019-01-31T02:08:40.413Z,1.6
2019-01-31T02:09:40.388Z,1.57
2019-01-31T02:10:40.627Z,1.55
2019-01-31T02:11:40.602Z,1.58
2019-01-31T02:12:40.315Z,1.52
2019-01-31T02:13:40.545Z,1.54
2019-01-31T02:14:40.281Z,1.51
2019-01-31T02:15:40.251Z,1.5
2019-01-31T02:16:40.085Z,1.57
2019-01-31T02:17:39.950Z,1.52
2019-01-31T02:18:39.927Z,1.5
2019-01-31T02:19:40.158Z,1.42
2019-01-31T02:20:39.892Z,1.43
2019-01-31T02:21:40.360Z,1.52
2019-01-31T02:22:40.092Z,1.37
2019-01-31T02:23:40.320Z,1.34
2019-01-31T02:24:40.290Z,1.34
2019-01-31T02:25:40.008Z,1.4
2019-01-31T02:26:40.242Z,1.28
2019-01-31T02:27:39.703Z,1.32
2019-01-31T02:28:39.689Z,1.34
2019-01-31T02:29:39.915Z,1.29
2019-01-31T02:30:39.640Z,1.32
2019-01-31T02:31:39.867Z,1.29
2019-01-31T02:32:39.837Z,1.29
2019-01-31T02:33:40.077Z,1.29
2019-01-31T02:34:39.786Z,1.29
2019-01-31T02:35:39.766Z,1.21
2019-01-31T02:36:39.756Z,1.19
2019-01-31T02:37:39.981Z,1.16
2019-01-31T02:38:39.441Z,1.21
2019-01-31T02:39:48.092Z,1.18
2019-01-31T02:40:39.396Z,1.07
2019-01-31T02:41:39.386Z,1.14
2019-01-31T02:42:39.963Z,1.08
2019-01-31T02:43:39.323Z,1.04
2019-01-31T02:44:39.571Z,1
2019-01-31T02:45:39.527Z,1.04
2019-01-31T02:46:40.023Z,1.07
2019-01-31T02:47:39.516Z,1.06
2019-01-31T02:48:39.201Z,1
2019-01-31T02:49:39.683Z,1.08
2019-01-31T02:50:39.412Z,1.07
2019-01-31T02:51:39.525Z,1
2019-01-31T02:52:39.363Z,0.92
2019-01-31T02:53:39.340Z,0.92
2019-01-31T02:54:39.067Z,0.98
2019-01-31T02:55:39.543Z,0.9
2019-01-31T02:56:39.526Z,0.88
2019-01-31T02:57:39.490Z,0.88
2019-01-31T02:58:39.220Z,0.85
2019-01-31T02:59:39.456Z,0.86
2019-01-31T03:00:39.167Z,0.94
2019-01-31T03:01:39.248Z,1.01
2019-01-31T03:02:39.188Z,0.83
2019-01-31T03:03:38.844Z,0.8
2019-01-31T03:04:39.339Z,0.85
2019-01-31T03:05:39.061Z,0.88
2019-01-31T03:06:39.032Z,0.82
2019-01-31T03:07:39.001Z,0.79
2019-01-31T03:08:38.978Z,0.82
2019-01-31T03:09:39.152Z,0.7
2019-01-31T03:11:38.904Z,0.72
2019-01-31T03:12:38.877Z,0.7
2019-01-31T03:13:38.865Z,0.75
2019-01-31T03:14:38.831Z,0.68
2019-01-31T03:15:38.809Z,0.67
2019-01-31T03:16:38.791Z,0.7
2019-01-31T03:17:38.499Z,0.67
2019-01-31T03:18:38.992Z,0.65
2019-01-31T03:19:38.956Z,0.65
2019-01-31T03:20:38.692Z,0.61
2019-01-31T03:21:39.145Z,0.6
2019-01-31T03:22:38.904Z,0.58
2019-01-31T03:23:38.351Z,0.53
2019-01-31T03:24:38.580Z,0.52
2019-01-31T03:25:38.314Z,0.46
2019-01-31T03:26:38.798Z,0.51
2019-01-31T03:27:38.518Z,0.52
2019-01-31T03:28:38.750Z,0.45
2019-01-31T03:29:38.461Z,0.46
2019-01-31T03:30:38.728Z,0.46
2019-01-31T03:31:38.445Z,0.48
2019-01-31T03:32:38.436Z,0.51
2019-01-31T03:33:38.626Z,0.51
2019-01-31T03:34:38.348Z,0.49
2019-01-31T03:35:38.572Z,0.41
2019-01-31T03:36:38.289Z,0.39
2019-01-31T03:37:38.634Z,0.42
2019-01-31T03:38:38.244Z,0.41
2019-01-31T03:39:37.964Z,0.38
2019-01-31T03:40:38.207Z,0.31
2019-01-31T03:41:38.433Z,0.38
2019-01-31T03:42:38.414Z,0.28
2019-01-31T03:43:37.875Z,0.33
2019-01-31T03:44:38.095Z,0.36
2019-01-31T03:45:38.334Z,0.34
2019-01-31T03:46:38.082Z,0.24
2019-01-31T03:47:38.283Z,0.28
2019-01-31T03:48:38.012Z,0.3
2019-01-31T03:49:37.987Z,0.23
2019-01-31T03:50:38.212Z,0.2
2019-01-31T03:51:37.933Z,0.2
2019-01-31T03:52:37.907Z,0.18
2019-01-31T03:53:37.908Z,0.09
2019-01-31T03:54:38.112Z,0.18
2019-01-31T03:55:37.577Z,0.2
2019-01-31T03:56:38.072Z,0.16
2019-01-31T03:57:38.043Z,0.28
2019-01-31T03:58:37.513Z,0.2
2019-01-31T03:59:37.730Z,0.28
2019-01-31T04:00:37.979Z,0.31
2019-01-31T04:01:37.432Z,0.33
2019-01-31T04:02:37.735Z,0.23
2019-01-31T04:03:37.892Z,0.3
2019-01-31T04:04:37.359Z,0.13
2019-01-31T04:05:37.602Z,0.21
2019-01-31T04:06:37.829Z,0.24
2019-01-31T04:07:37.809Z,0.23
2019-01-31T04:08:37.523Z,0.21
2019-01-31T04:09:37.493Z,0.2
2019-01-31T04:10:37.730Z,0.18
2019-01-31T04:11:37.443Z,0.24
2019-01-31T04:12:37.428Z,0.2
2019-01-31T04:13:37.398Z,0.16
2019-01-31T04:14:37.631Z,0.16
2019-01-31T04:15:37.633Z,0.16
2019-01-31T04:16:37.328Z,0.16
2019-01-31T04:17:37.364Z,0.18
2019-01-31T04:18:37.290Z,0.18
2019-01-31T04:19:37.535Z,0.16
2019-01-31T04:20:37.233Z,0.15
2019-01-31T04:21:37.204Z,0.06
2019-01-31T04:22:37.032Z,0.06
2019-01-31T04:23:37.453Z,0.07
2019-01-31T04:24:36.883Z,0
2019-01-31T04:25:37.369Z,-0.05
2019-01-31T04:26:37.090Z,-0.01
2019-01-31T04:27:37.168Z,-0.01
2019-01-31T04:28:36.821Z,-0.08
2019-01-31T04:29:37.378Z,-0.05
2019-01-31T04:30:36.989Z,0.03
2019-01-31T04:31:37.269Z,-0.08
2019-01-31T04:32:37.188Z,-0.12
2019-01-31T04:33:37.178Z,-0.08
2019-01-31T04:34:36.897Z,-0.08
2019-01-31T04:35:37.119Z,-0.13
2019-01-31T04:36:36.606Z,-0.12
2019-01-31T04:37:36.882Z,-0.08
2019-01-31T04:38:36.542Z,-0.12
2019-01-31T04:39:36.770Z,-0.13
2019-01-31T04:40:37.020Z,-0.15
2019-01-31T04:41:36.738Z,-0.19
2019-01-31T04:42:36.993Z,-0.19
2019-01-31T04:43:36.664Z,-0.13
2019-01-31T04:44:36.648Z,-0.19
2019-01-31T04:45:36.631Z,-0.19
2019-01-31T04:46:36.889Z,-0.18
2019-01-31T04:47:36.824Z,-0.19
2019-01-31T04:48:36.553Z,-0.24
2019-01-31T04:49:36.535Z,-0.22
2019-01-31T04:50:36.498Z,-0.15
2019-01-31T04:51:36.488Z,-0.19
2019-01-31T04:52:36.905Z,-0.15
2019-01-31T04:53:36.685Z,-0.29
2019-01-31T04:54:36.666Z,-0.18
2019-01-31T04:55:36.638Z,-0.29
2019-01-31T04:56:36.620Z,-0.29
2019-01-31T04:57:36.586Z,-0.37
2019-01-31T04:58:36.606Z,-0.27
2019-01-31T04:59:36.281Z,-0.39
2019-01-31T05:00:36.251Z,-0.34
2019-01-31T05:01:36.483Z,-0.33
2019-01-31T05:02:36.227Z,-0.41
2019-01-31T05:03:36.464Z,-0.45
2019-01-31T05:04:36.417Z,-0.39
2019-01-31T05:05:36.411Z,-0.39
2019-01-31T05:06:36.370Z,-0.42
2019-01-31T05:07:36.342Z,-0.48
2019-01-31T05:08:35.807Z,-0.5
2019-01-31T05:09:36.005Z,-0.37
2019-01-31T05:10:47.436Z,-0.47
2019-01-31T05:11:36.274Z,-0.47
2019-01-31T05:12:36.226Z,-0.41
2019-01-31T05:13:35.938Z,-0.54
2019-01-31T05:14:35.922Z,-0.45
2019-01-31T05:15:36.161Z,-0.44
2019-01-31T05:16:35.618Z,-0.39
2019-01-31T05:17:36.098Z,-0.39
2019-01-31T05:18:35.816Z,-0.41
2019-01-31T05:19:35.542Z,-0.44
2019-01-31T05:20:36.149Z,-0.42
2019-01-31T05:21:35.751Z,-0.44
2019-01-31T05:22:35.717Z,-0.41
2019-01-31T05:23:35.697Z,-0.42
2019-01-31T05:24:35.922Z,-0.5
2019-01-31T05:25:35.659Z,-0.51
2019-01-31T05:26:35.969Z,-0.41
2019-01-31T05:27:35.849Z,-0.42
2019-01-31T05:28:35.825Z,-0.42
2019-01-31T05:29:35.304Z,-0.59
2019-01-31T05:30:35.794Z,-0.54
2019-01-31T05:31:35.764Z,-0.52
2019-01-31T05:32:35.503Z,-0.55
2019-01-31T05:33:35.708Z,-0.59
2019-01-31T05:34:35.421Z,-0.59
2019-01-31T05:35:35.670Z,-0.6
2019-01-31T05:36:35.661Z,-0.62
2019-01-31T05:37:35.367Z,-0.6
2019-01-31T05:38:35.334Z,-0.66
2019-01-31T05:39:35.561Z,-0.65
2019-01-31T05:40:35.287Z,-0.65
2019-01-31T05:41:35.517Z,-0.65
2019-01-31T05:42:34.980Z,-0.69
2019-01-31T05:43:35.207Z,-0.66
2019-01-31T05:44:35.437Z,-0.73
2019-01-31T05:45:35.413Z,-0.73
2019-01-31T05:46:35.139Z,-0.81
2019-01-31T05:47:35.111Z,-0.78
2019-01-31T05:48:35.080Z,-0.92
2019-01-31T05:49:35.316Z,-0.89
2019-01-31T05:50:35.040Z,-0.94
2019-01-31T05:51:35.029Z,-0.91
2019-01-31T05:52:34.994Z,-0.87
2019-01-31T05:53:35.211Z,-0.95
2019-01-31T05:54:34.994Z,-0.94
2019-01-31T05:55:35.183Z,-0.91
2019-01-31T05:56:34.635Z,-0.91
2019-01-31T05:57:35.136Z,-0.91
2019-01-31T05:58:35.110Z,-0.89
2019-01-31T05:59:35.102Z,-0.92
2019-01-31T06:00:34.925Z,-0.94
2019-01-31T06:01:35.020Z,-0.99
2019-01-31T06:02:34.737Z,-0.94
2019-01-31T06:03:34.464Z,-1
2019-01-31T06:04:34.692Z,-0.92
2019-01-31T06:05:34.930Z,-1.02
2019-01-31T06:06:34.648Z,-0.99
2019-01-31T06:07:34.870Z,-1
2019-01-31T06:08:34.598Z,-1.06
2019-01-31T06:09:34.567Z,-1.28
2019-01-31T06:10:36.159Z,-1.2
2019-01-31T06:11:34.775Z,-1.25
2019-01-31T06:12:34.750Z,-1.24
2019-01-31T06:13:34.469Z,-1.33
2019-01-31T06:14:34.736Z,-1.41
2019-01-31T06:15:34.448Z,-1.33
2019-01-31T06:16:34.138Z,-1.35
2019-01-31T06:17:34.369Z,-1.35
2019-01-31T06:18:34.593Z,-1.48
2019-01-31T06:19:34.063Z,-1.54
2019-01-31T06:20:34.296Z,-1.51
2019-01-31T06:21:34.531Z,-1.53
2019-01-31T06:22:34.254Z,-1.59
2019-01-31T06:23:34.229Z,-1.67
2019-01-31T06:24:34.192Z,-1.7
2019-01-31T06:25:33.925Z,-1.66
2019-01-31T06:26:33.891Z,-1.67
2019-01-31T06:27:34.381Z,-1.74
2019-01-31T06:28:34.372Z,-1.66
2019-01-31T06:29:33.813Z,-1.77
2019-01-31T06:30:33.796Z,-1.75
2019-01-31T06:31:34.277Z,-1.77
2019-01-31T06:32:34.256Z,-1.77
2019-01-31T06:33:33.741Z,-1.77
2019-01-31T06:34:33.953Z,-1.78
2019-01-31T06:35:34.185Z,-1.77
2019-01-31T06:36:33.643Z,-1.8
2019-01-31T06:37:34.133Z,-1.75
2019-01-31T06:38:34.098Z,-1.67
2019-01-31T06:39:33.822Z,-1.67
2019-01-31T06:40:34.044Z,-1.77
2019-01-31T06:41:33.517Z,-1.8
2019-01-31T06:42:33.818Z,-1.64
2019-01-31T06:43:33.729Z,-1.75
2019-01-31T06:44:33.965Z,-1.7
2019-01-31T06:45:33.676Z,-1.7
2019-01-31T06:46:33.908Z,-1.77
2019-01-31T06:47:33.872Z,-1.72
2019-01-31T06:48:36.506Z,-1.67
2019-01-31T06:49:33.327Z,-1.72
2019-01-31T06:50:33.807Z,-1.7
2019-01-31T06:51:33.528Z,-1.69
2019-01-31T06:52:33.755Z,-1.66
2019-01-31T06:53:33.265Z,-1.7
2019-01-31T06:54:33.461Z,-1.74
2019-01-31T06:55:33.676Z,-1.69
2019-01-31T06:56:33.655Z,-1.75
2019-01-31T06:57:33.386Z,-1.63
2019-01-31T06:58:33.621Z,-1.66
2019-01-31T06:59:33.346Z,-1.74
2019-01-31T07:00:33.567Z,-1.62
2019-01-31T07:01:33.277Z,-1.66
2019-01-31T07:02:33.244Z,-1.64
2019-01-31T07:03:33.223Z,-1.62
2019-01-31T07:04:33.199Z,-1.66
2019-01-31T07:05:33.183Z,-1.62
2019-01-31T07:06:33.435Z,-1.6
2019-01-31T07:07:33.122Z,-1.56
2019-01-31T07:08:33.351Z,-1.54
2019-01-31T07:09:33.270Z,-1.54
2019-01-31T07:10:33.046Z,-1.48
2019-01-31T07:11:37.360Z,-1.46
2019-01-31T07:12:33.254Z,-1.45
2019-01-31T07:13:33.909Z,-1.31
2019-01-31T07:14:32.699Z,-1.35
2019-01-31T07:15:32.705Z,-1.25
2019-01-31T07:16:32.918Z,-1.3
2019-01-31T07:17:32.884Z,-1.28
2019-01-31T07:18:32.854Z,-1.27
2019-01-31T07:19:32.824Z,-1.24
2019-01-31T07:20:32.797Z,-1.2
2019-01-31T07:21:32.778Z,-1.23
2019-01-31T07:22:33.003Z,-1.23
2019-01-31T07:23:32.982Z,-1.25
2019-01-31T07:24:32.447Z,-1.18
2019-01-31T07:25:32.440Z,-1.21
2019-01-31T07:26:32.655Z,-1.23
2019-01-31T07:27:32.883Z,-1.28
2019-01-31T07:28:32.602Z,-1.12
2019-01-31T07:29:32.576Z,-1.1
2019-01-31T07:30:32.804Z,-1.15
2019-01-31T07:31:32.676Z,-1.23
2019-01-31T07:32:32.754Z,-1.17
2019-01-31T07:33:32.742Z,-1.12
2019-01-31T07:34:32.456Z,-1.12
2019-01-31T07:35:32.430Z,-1.13
2019-01-31T07:36:32.716Z,-1.15
2019-01-31T07:37:32.374Z,-1.06
2019-01-31T07:38:32.608Z,-1.09
2019-01-31T07:39:32.326Z,-1.06
2019-01-31T07:40:32.594Z,-1.03
2019-01-31T07:41:43.204Z,-0.99
2019-01-31T07:42:32.624Z,-1.06
2019-01-31T07:43:32.229Z,-1.02
2019-01-31T07:44:32.206Z,-0.95
2019-01-31T07:45:31.922Z,-0.91
2019-01-31T07:46:31.898Z,-1.02
2019-01-31T07:47:32.127Z,-0.91
2019-01-31T07:48:32.115Z,-0.95
2019-01-31T07:49:32.336Z,-0.91
2019-01-31T07:50:32.311Z,-0.87
2019-01-31T07:51:32.045Z,-0.83
2019-01-31T07:52:32.008Z,-0.8
2019-01-31T07:53:31.730Z,-0.78
2019-01-31T07:54:31.957Z,-0.83
2019-01-31T07:55:32.189Z,-0.78
2019-01-31T07:56:31.660Z,-0.75
2019-01-31T07:57:32.185Z,-0.72
2019-01-31T07:58:31.876Z,-0.62
2019-01-31T07:59:31.857Z,-0.69
2019-01-31T08:00:32.075Z,-0.63
2019-01-31T08:01:31.788Z,-0.57
2019-01-31T08:02:32.025Z,-0.52
2019-01-31T08:03:31.741Z,-0.52
2019-01-31T08:04:31.969Z,-0.48
2019-01-31T08:05:31.955Z,-0.51
2019-01-31T08:06:31.667Z,-0.42
2019-01-31T08:07:33.650Z,-0.34
2019-01-31T08:08:31.633Z,-0.34
2019-01-31T08:09:31.341Z,-0.37
2019-01-31T08:10:31.835Z,-0.37
2019-01-31T08:11:31.550Z,-0.44
2019-01-31T08:12:34.377Z,-0.34
2019-01-31T08:13:31.496Z,-0.3
2019-01-31T08:14:31.508Z,-0.27
2019-01-31T08:15:31.709Z,-0.29
2019-01-31T08:16:31.190Z,-0.3
2019-01-31T08:17:31.655Z,-0.15
2019-01-31T08:18:31.646Z,-0.33
2019-01-31T08:19:31.354Z,-0.16
2019-01-31T08:20:31.645Z,-0.19
2019-01-31T08:21:31.554Z,-0.18
2019-01-31T08:22:31.280Z,-0.23
2019-01-31T08:23:31.258Z,-0.24
2019-01-31T08:24:31.498Z,-0.16
2019-01-31T08:25:31.210Z,-0.16
2019-01-31T08:26:31.183Z,-0.15
2019-01-31T08:27:30.911Z,-0.12
2019-01-31T08:28:31.471Z,-0.09
2019-01-31T08:29:31.116Z,-0.05
2019-01-31T08:30:31.088Z,-0.12
2019-01-31T08:31:31.370Z,-0.06
2019-01-31T08:32:31.041Z,-0.04
2019-01-31T08:33:33.471Z,-0.01
2019-01-31T08:34:31.251Z,0.02
2019-01-31T08:35:30.970Z,0.02
2019-01-31T08:36:31.204Z,0.1
2019-01-31T08:37:30.927Z,0.16
2019-01-31T08:38:30.907Z,0.03
2019-01-31T08:39:30.888Z,0.12
2019-01-31T08:40:31.103Z,0.21
2019-01-31T08:41:30.822Z,0.2
2019-01-31T08:42:30.803Z,0.2
2019-01-31T08:43:30.794Z,0.25
2019-01-31T08:44:30.763Z,0.31
2019-01-31T08:45:30.734Z,0.27
2019-01-31T08:46:30.713Z,0.28
2019-01-31T08:47:30.455Z,0.31
2019-01-31T08:48:30.676Z,0.3
2019-01-31T08:49:30.656Z,0.41
2019-01-31T08:50:32.299Z,0.42
2019-01-31T08:51:30.591Z,0.51
2019-01-31T08:52:30.846Z,0.46
2019-01-31T08:53:30.818Z,0.49
2019-01-31T08:54:30.862Z,0.48
2019-01-31T08:55:30.524Z,0.51
2019-01-31T08:56:30.724Z,0.52
2019-01-31T08:57:30.446Z,0.51
2019-01-31T08:58:30.430Z,0.51
2019-01-31T08:59:30.662Z,0.6
2019-01-31T09:00:30.660Z,0.64
2019-01-31T09:01:30.610Z,0.65
2019-01-31T09:02:30.584Z,0.62
2019-01-31T09:03:30.632Z,0.64
2019-01-31T09:04:30.024Z,0.75
2019-01-31T09:05:30.008Z,0.76
2019-01-31T09:06:29.987Z,0.68
2019-01-31T09:07:31.823Z,0.85
2019-01-31T09:08:30.447Z,0.85
2019-01-31T09:09:30.379Z,0.83
2019-01-31T09:10:30.436Z,0.8
2019-01-31T09:11:30.117Z,0.97
2019-01-31T09:12:30.095Z,0.92
2019-01-31T09:13:30.067Z,1.01
2019-01-31T09:14:30.053Z,1.01
2019-01-31T09:15:30.029Z,1.06
2019-01-31T09:16:30.040Z,1.07
2019-01-31T09:17:30.248Z,1.16
2019-01-31T09:18:29.700Z,1.14
2019-01-31T09:19:29.939Z,1.18
2019-01-31T09:20:30.196Z,1.14
2019-01-31T09:21:30.140Z,1.15
2019-01-31T09:22:29.858Z,1.21
2019-01-31T09:23:30.093Z,1.25
2019-01-31T09:24:30.105Z,1.21
2019-01-31T09:25:29.789Z,1.24
2019-01-31T09:26:29.777Z,1.33
2019-01-31T09:27:29.769Z,1.39
2019-01-31T09:28:29.758Z,1.34
2019-01-31T09:29:29.711Z,1.32
2019-01-31T09:30:29.679Z,1.32
2019-01-31T09:31:29.913Z,1.33
2019-01-31T09:32:29.653Z,1.15
2019-01-31T09:33:29.606Z,1.29
2019-01-31T09:34:29.355Z,1.29
2019-01-31T09:35:29.561Z,1.34
2019-01-31T09:36:29.297Z,1.26
2019-01-31T09:37:29.779Z,1.34
2019-01-31T09:38:29.749Z,1.33
2019-01-31T09:39:29.471Z,1.36
2019-01-31T09:40:29.450Z,1.37
2019-01-31T09:41:29.427Z,1.43
2019-01-31T09:42:31.425Z,1.44
2019-01-31T09:43:29.633Z,1.51
2019-01-31T09:44:29.104Z,1.52
2019-01-31T09:45:29.360Z,1.47
2019-01-31T09:46:29.371Z,1.47
2019-01-31T09:47:31.638Z,1.46
2019-01-31T09:48:29.266Z,1.42
2019-01-31T09:49:29.495Z,1.39
2019-01-31T09:50:30.694Z,1.51
2019-01-31T09:51:29.461Z,1.51
2019-01-31T09:52:29.181Z,1.52
2019-01-31T09:53:29.424Z,1.47
2019-01-31T09:54:29.125Z,1.54
2019-01-31T09:55:29.366Z,1.39
2019-01-31T09:56:29.331Z,1.44
2019-01-31T09:57:29.311Z,1.43
2019-01-31T09:58:30.597Z,1.43
2019-01-31T09:59:29.012Z,1.51
2019-01-31T10:00:32.559Z,1.55
2019-01-31T10:01:28.717Z,1.58
2019-01-31T10:02:28.946Z,1.57
2019-01-31T10:03:28.927Z,1.58
2019-01-31T10:04:29.160Z,1.51
2019-01-31T10:05:29.133Z,1.64
2019-01-31T10:06:29.135Z,1.64
2019-01-31T10:07:28.592Z,1.6
2019-01-31T10:08:29.058Z,1.68
2019-01-31T10:09:28.804Z,1.65
2019-01-31T10:10:29.185Z,1.73
2019-01-31T10:11:29.196Z,1.91
2019-01-31T10:12:40.290Z,1.85
2019-01-31T10:13:29.165Z,1.94
2019-01-31T10:14:28.988Z,1.98
2019-01-31T10:15:28.761Z,2.01
2019-01-31T10:16:28.689Z,2.01
2019-01-31T10:17:28.700Z,2.02
2019-01-31T10:18:28.923Z,2.17
2019-01-31T10:19:28.725Z,2.12
2019-01-31T10:20:28.877Z,2.17
2019-01-31T10:21:28.362Z,2.15
2019-01-31T10:22:28.753Z,2.17
2019-01-31T10:23:28.924Z,2.22
2019-01-31T10:24:28.926Z,2.19
2019-01-31T10:25:28.608Z,2.19
2019-01-31T10:26:28.149Z,2.17
2019-01-31T10:27:28.376Z,2.19
2019-01-31T10:28:28.362Z,2.31
2019-01-31T10:29:28.598Z,2.38
2019-01-31T10:30:28.059Z,2.33
2019-01-31T10:31:28.034Z,2.31
2019-01-31T10:32:28.264Z,2.44
2019-01-31T10:33:28.244Z,2.4
2019-01-31T10:34:28.477Z,2.37
2019-01-31T10:35:28.198Z,2.48
2019-01-31T10:36:28.434Z,2.34
2019-01-31T10:37:28.410Z,2.45
2019-01-31T10:38:28.136Z,2.45
2019-01-31T10:39:28.111Z,2.52
2019-01-31T10:40:28.091Z,2.48
2019-01-31T10:41:28.075Z,2.53
2019-01-31T10:42:28.072Z,2.58
2019-01-31T10:43:28.036Z,2.56
2019-01-31T10:44:28.014Z,2.53
2019-01-31T10:45:29.549Z,2.51
2019-01-31T10:46:28.211Z,2.56
2019-01-31T10:47:27.679Z,2.52
2019-01-31T10:48:27.911Z,2.45
2019-01-31T10:49:28.170Z,2.51
2019-01-31T10:50:27.868Z,2.49
2019-01-31T10:51:28.111Z,2.45
2019-01-31T10:52:28.082Z,2.46
2019-01-31T10:53:28.071Z,2.4
2019-01-31T10:54:28.084Z,2.4
2019-01-31T10:55:27.504Z,2.41
2019-01-31T10:56:27.742Z,2.48
2019-01-31T10:57:27.731Z,2.41
2019-01-31T10:58:28.007Z,2.37
2019-01-31T10:59:27.668Z,2.34
2019-01-31T11:00:27.901Z,2.44
2019-01-31T11:01:27.887Z,2.38
2019-01-31T11:02:27.606Z,2.38
2019-01-31T11:03:27.323Z,2.38
2019-01-31T11:04:27.310Z,2.49
2019-01-31T11:05:27.540Z,2.56
2019-01-31T11:06:27.854Z,2.63
2019-01-31T11:07:27.544Z,2.53
2019-01-31T11:08:27.734Z,2.53
2019-01-31T11:09:27.450Z,2.53
2019-01-31T11:10:27.691Z,2.46
2019-01-31T11:11:27.154Z,2.46
2019-01-31T11:12:27.385Z,2.56
2019-01-31T11:13:27.637Z,2.45
2019-01-31T11:14:27.341Z,2.61
2019-01-31T11:15:27.332Z,2.56
2019-01-31T11:16:27.296Z,2.61
2019-01-31T11:17:27.016Z,2.63
2019-01-31T11:18:27.273Z,2.53
2019-01-31T11:19:27.237Z,2.63
2019-01-31T11:20:27.459Z,2.66
2019-01-31T11:21:27.190Z,2.64
2019-01-31T11:22:27.176Z,2.67
2019-01-31T11:23:27.394Z,2.66
2019-01-31T11:24:27.371Z,2.7
2019-01-31T11:25:27.357Z,2.61
2019-01-31T11:26:26.828Z,2.7
2019-01-31T11:27:27.315Z,2.76
2019-01-31T11:28:27.301Z,2.71
2019-01-31T11:29:27.009Z,2.76
2019-01-31T11:30:26.989Z,2.71
2019-01-31T11:31:26.720Z,2.77
2019-01-31T11:32:27.046Z,2.76
2019-01-31T11:33:26.926Z,2.73
2019-01-31T11:34:37.243Z,2.71
2019-01-31T11:35:27.131Z,2.79
2019-01-31T11:36:27.128Z,2.73
2019-01-31T11:37:26.838Z,2.77
2019-01-31T11:38:27.060Z,2.81
2019-01-31T11:39:27.050Z,2.82
2019-01-31T11:40:26.768Z,2.81
2019-01-31T11:41:26.999Z,2.73
2019-01-31T11:42:26.477Z,2.79
2019-01-31T11:43:26.702Z,2.71
2019-01-31T11:44:26.942Z,2.85
2019-01-31T11:45:26.680Z,2.79
2019-01-31T11:46:26.900Z,2.77
2019-01-31T11:47:26.625Z,2.85
2019-01-31T11:48:26.601Z,2.82
2019-01-31T11:49:26.864Z,2.79
2019-01-31T11:50:26.565Z,2.69
2019-01-31T11:51:26.797Z,2.69
2019-01-31T11:52:26.509Z,2.79
2019-01-31T11:53:26.772Z,2.7
2019-01-31T11:54:26.475Z,2.7
2019-01-31T11:55:26.708Z,2.69
2019-01-31T11:56:26.425Z,2.71
2019-01-31T11:57:26.399Z,2.73
2019-01-31T11:58:26.164Z,2.74
2019-01-31T11:59:26.107Z,2.71
2019-01-31T12:00:26.347Z,2.69
2019-01-31T12:01:26.064Z,2.66
2019-01-31T12:02:26.293Z,2.66
2019-01-31T12:03:26.278Z,2.71
2019-01-31T12:04:26.511Z,2.74
2019-01-31T12:05:26.484Z,2.71
2019-01-31T12:06:26.202Z,2.73
2019-01-31T12:07:26.453Z,2.82
2019-01-31T12:08:26.424Z,2.77
2019-01-31T12:09:26.406Z,2.76
2019-01-31T12:10:26.375Z,2.69
2019-01-31T12:11:26.094Z,2.76
2019-01-31T12:12:26.081Z,2.73
2019-01-31T12:13:28.515Z,2.74
2019-01-31T12:14:26.034Z,2.81
2019-01-31T12:15:26.011Z,2.81
2019-01-31T12:16:26.270Z,2.82
2019-01-31T12:17:26.221Z,2.77
2019-01-31T12:18:25.953Z,2.76
2019-01-31T12:19:25.670Z,2.81
2019-01-31T12:20:25.645Z,2.84
2019-01-31T12:21:26.129Z,2.82
2019-01-31T12:22:25.865Z,2.82
2019-01-31T12:23:25.938Z,2.89
2019-01-31T12:24:25.831Z,2.95
2019-01-31T12:25:25.591Z,2.91
2019-01-31T12:26:25.773Z,2.91
2019-01-31T12:27:26.030Z,2.95
2019-01-31T12:28:25.992Z,2.91
2019-01-31T12:29:26.022Z,2.87
2019-01-31T12:30:25.775Z,2.77
2019-01-31T12:31:25.927Z,2.82
2019-01-31T12:32:25.640Z,2.79
2019-01-31T12:33:25.628Z,2.85
2019-01-31T12:34:25.608Z,2.81
2019-01-31T12:35:25.828Z,2.76
2019-01-31T12:36:25.294Z,2.77
2019-01-31T12:37:25.524Z,2.82
2019-01-31T12:38:36.218Z,2.88
2019-01-31T12:39:25.576Z,2.84
2019-01-31T12:40:25.728Z,2.81
2019-01-31T12:41:25.436Z,2.79
2019-01-31T12:42:25.682Z,2.76
2019-01-31T12:43:37.129Z,2.81
2019-01-31T12:44:25.624Z,2.84
2019-01-31T12:45:25.618Z,2.85
2019-01-31T12:46:25.630Z,2.97
2019-01-31T12:47:25.569Z,3
2019-01-31T12:48:25.292Z,3.05
2019-01-31T12:49:25.521Z,3.1
2019-01-31T12:50:25.251Z,3.06
2019-01-31T12:51:25.488Z,3.16
2019-01-31T12:52:25.234Z,3.2
2019-01-31T12:53:25.444Z,3.16
2019-01-31T12:54:25.416Z,3.16
2019-01-31T12:55:25.198Z,3.2
2019-01-31T12:56:25.120Z,3.34
2019-01-31T12:57:25.400Z,3.3
2019-01-31T12:58:35.644Z,3.31
2019-01-31T12:59:25.607Z,3.36
2019-01-31T13:00:24.773Z,3.25
2019-01-31T13:01:25.006Z,3.2
2019-01-31T13:02:24.728Z,3.25
2019-01-31T13:03:25.033Z,3.27
2019-01-31T13:04:25.406Z,3.28
2019-01-31T13:05:25.196Z,3.16
2019-01-31T13:06:25.182Z,3.18
2019-01-31T13:07:24.882Z,3.16
2019-01-31T13:08:25.144Z,3
2019-01-31T13:09:24.846Z,3.05
2019-01-31T13:10:25.024Z,3.06
2019-01-31T13:11:24.797Z,3.09
2019-01-31T13:12:25.028Z,2.98
2019-01-31T13:13:24.761Z,3.07
2019-01-31T13:14:24.726Z,2.95